Time;durP1;ratioP1;P1;durP2;ratioP2;P2;SDS_P1;SDS_P2;PMS_P1;PMS_P2;Temp;Humidity;BMP_temperature;BMP_pressure;BME280_temperature;BME280_humidity;BME280_pressure;Samples;Min_cycle;Max_cycle;Signal;HPM_P1;HPM_P2
2023/08/03 00:02:04;;;;;;;0.75;0.40;;;16.10;99.90;;;;;;5071137;28;20048;-64
2023/08/03 00:04:30;;;;;;;0.47;0.30;;;16.00;99.90;;;;;;5070496;28;20070;-63
2023/08/03 00:06:55;;;;;;;0.88;0.43;;;16.00;99.90;;;;;;5071059;28;20040;-65
2023/08/03 00:09:21;;;;;;;1.27;0.60;;;16.00;99.90;;;;;;5071302;28;20127;-63
2023/08/03 00:11:47;;;;;;;0.80;0.28;;;16.00;99.90;;;;;;5070460;28;20473;-64
2023/08/03 00:14:13;;;;;;;0.22;0.20;;;15.90;99.90;;;;;;5072086;28;20044;-63
2023/08/03 00:16:38;;;;;;;0.38;0.28;;;15.90;99.90;;;;;;5072059;28;20123;-63
2023/08/03 00:19:04;;;;;;;0.38;0.20;;;15.90;99.90;;;;;;5070127;28;20060;-64
2023/08/03 00:21:30;;;;;;;1.58;0.65;;;15.90;99.90;;;;;;5072069;28;20036;-64
2023/08/03 00:23:55;;;;;;;1.30;0.68;;;15.90;99.90;;;;;;5051903;28;20049;-64
2023/08/03 00:26:21;;;;;;;0.43;0.28;;;16.00;99.90;;;;;;5050244;28;20052;-63
2023/08/03 00:28:47;;;;;;;0.45;0.17;;;15.90;99.90;;;;;;5050628;28;20055;-63
2023/08/03 00:31:13;;;;;;;0.10;0.10;;;15.90;99.90;;;;;;5052029;28;20041;-64
2023/08/03 00:33:38;;;;;;;0.85;0.45;;;16.00;99.90;;;;;;5051218;28;20691;-65
2023/08/03 00:36:04;;;;;;;0.50;0.50;;;15.90;99.90;;;;;;5050780;28;20134;-64
2023/08/03 00:38:30;;;;;;;0.52;0.20;;;16.00;99.90;;;;;;5050471;28;20041;-65
2023/08/03 00:40:56;;;;;;;0.60;0.35;;;16.00;99.90;;;;;;5049728;28;20041;-65
2023/08/03 00:43:21;;;;;;;0.47;0.35;;;16.00;99.90;;;;;;5051724;28;20052;-64
2023/08/03 00:45:47;;;;;;;1.20;0.15;;;16.00;99.90;;;;;;5049728;28;20041;-64
2023/08/03 00:48:14;;;;;;;0.20;0.10;;;16.00;99.90;;;;;;5049897;28;20052;-66
2023/08/03 00:50:39;;;;;;;0.28;0.13;;;16.00;99.90;;;;;;5051724;28;20059;-64
2023/08/03 00:53:05;;;;;;;0.30;0.30;;;16.00;99.90;;;;;;5046049;28;20592;-64
2023/08/03 00:55:31;;;;;;;0.57;0.40;;;16.00;99.90;;;;;;5049491;28;20111;-63
2023/08/03 00:57:58;;;;;;;0.50;0.40;;;16.00;99.90;;;;;;5050026;28;20556;-63
2023/08/03 01:00:24;;;;;;;0.32;0.30;;;16.00;99.90;;;;;;5064610;28;20040;-64
2023/08/03 01:02:50;;;;;;;0.40;0.40;;;16.00;99.90;;;;;;5070051;28;20044;-63
2023/08/03 01:05:16;;;;;;;0.40;0.30;;;16.00;99.90;;;;;;5069962;28;20044;-64
2023/08/03 01:07:42;;;;;;;2.45;0.30;;;16.00;99.90;;;;;;5069227;28;20143;-64
2023/08/03 01:10:08;;;;;;;0.65;0.30;;;16.00;99.90;;;;;;5071139;28;20036;-64
2023/08/03 01:12:34;;;;;;;0.68;0.40;;;16.00;99.90;;;;;;5071154;28;20044;-63
2023/08/03 01:15:00;;;;;;;0.32;0.30;;;16.00;99.90;;;;;;5069073;28;20113;-64
2023/08/03 01:17:25;;;;;;;1.58;0.30;;;16.10;99.90;;;;;;5069669;28;20103;-64
2023/08/03 01:19:52;;;;;;;0.28;0.20;;;16.00;99.90;;;;;;5053493;28;20102;-63
2023/08/03 01:22:18;;;;;;;3.05;0.30;;;16.00;99.90;;;;;;5049087;28;20040;-63
2023/08/03 01:24:44;;;;;;;1.25;0.28;;;16.10;99.90;;;;;;5049613;28;20048;-63
2023/08/03 01:27:10;;;;;;;0.65;0.40;;;16.10;99.90;;;;;;5050977;28;20028;-62
2023/08/03 01:29:35;;;;;;;0.85;0.30;;;16.10;99.90;;;;;;5048955;28;20562;-64
2023/08/03 01:32:01;;;;;;;0.15;0.15;;;16.10;99.90;;;;;;5050782;28;20075;-63
2023/08/03 01:34:27;;;;;;;0.40;0.30;;;16.10;99.90;;;;;;5050620;28;20045;-63
2023/08/03 01:36:54;;;;;;;1.05;0.30;;;16.10;99.90;;;;;;5050105;28;20041;-64
2023/08/03 01:39:22;;;;;;;0.65;0.40;;;16.10;99.90;;;;;;5049485;28;20116;-65
2023/08/03 01:41:48;;;;;;;1.38;0.43;;;16.10;99.90;;;;;;5050003;28;20457;-65
2023/08/03 01:44:43;;;;;;;0.57;0.30;;;16.10;99.90;;;;;;5032765;28;20050;-66
2023/08/03 01:47:10;;;;;;;1.13;0.60;;;16.10;99.90;;;;;;5054182;28;20401;-66
2023/08/03 01:49:35;;;;;;;0.35;0.30;;;16.10;99.90;;;;;;5048557;28;20048;-66
2023/08/03 01:52:01;;;;;;;0.22;0.20;;;16.10;99.90;;;;;;5049098;28;20049;-67
2023/08/03 01:54:27;;;;;;;0.95;0.50;;;16.10;99.90;;;;;;5049011;28;20459;-67
2023/08/03 01:56:54;;;;;;;0.88;0.40;;;16.10;99.90;;;;;;5048721;28;20113;-67
2023/08/03 01:59:19;;;;;;;0.65;0.47;;;16.10;99.90;;;;;;5055372;28;20488;-67
2023/08/03 02:01:45;;;;;;;2.65;0.63;;;16.10;99.90;;;;;;5070430;28;20123;-67
2023/08/03 02:04:11;;;;;;;1.50;0.60;;;16.10;99.90;;;;;;5068406;28;20049;-67
2023/08/03 02:06:37;;;;;;;2.95;0.50;;;16.10;99.90;;;;;;5070223;28;20044;-67
2023/08/03 02:09:04;;;;;;;1.23;0.70;;;16.20;99.90;;;;;;5068952;28;20048;-67
2023/08/03 02:11:30;;;;;;;1.35;0.70;;;16.20;99.90;;;;;;5069774;28;20051;-67
2023/08/03 02:13:56;;;;;;;1.17;0.70;;;16.20;99.90;;;;;;5070297;28;20048;-66
2023/08/03 02:16:22;;;;;;;1.25;0.50;;;16.20;99.90;;;;;;5050781;28;20064;-66
2023/08/03 02:18:47;;;;;;;0.73;0.52;;;16.20;99.90;;;;;;5049649;28;20096;-66
2023/08/03 02:21:13;;;;;;;1.02;0.70;;;16.20;99.90;;;;;;5050308;28;20080;-66
2023/08/03 02:23:39;;;;;;;0.90;0.57;;;16.20;99.90;;;;;;5048203;28;20076;-66
2023/08/03 02:26:05;;;;;;;3.63;0.60;;;16.20;99.90;;;;;;5050278;28;20063;-66
2023/08/03 02:28:32;;;;;;;1.83;0.60;;;16.20;99.90;;;;;;5048926;28;20107;-66
2023/08/03 02:30:58;;;;;;;2.35;0.70;;;16.30;99.90;;;;;;5048292;28;20124;-66
2023/08/03 02:33:24;;;;;;;2.17;1.02;;;16.20;99.90;;;;;;5032458;28;20132;-66
2023/08/03 02:35:50;;;;;;;2.28;0.95;;;16.20;99.90;;;;;;5049066;28;20041;-65
2023/08/03 02:38:17;;;;;;;2.47;1.13;;;16.20;99.90;;;;;;5048383;28;20157;-65
2023/08/03 02:40:43;;;;;;;1.73;0.80;;;16.20;99.90;;;;;;5050085;28;20029;-65
2023/08/03 02:43:08;;;;;;;1.65;0.90;;;16.30;99.90;;;;;;5048732;28;20470;-64
2023/08/03 02:45:34;;;;;;;1.23;0.80;;;16.30;99.90;;;;;;5049522;28;20029;-65
2023/08/03 02:48:00;;;;;;;1.85;0.68;;;16.30;99.90;;;;;;5048653;28;20098;-65
2023/08/03 02:50:26;;;;;;;2.60;0.70;;;16.30;99.90;;;;;;5049829;28;20037;-65
2023/08/03 02:52:51;;;;;;;4.60;0.88;;;16.40;99.90;;;;;;5054297;28;20045;-66
2023/08/03 02:55:17;;;;;;;3.28;0.77;;;16.30;99.90;;;;;;5068514;28;20051;-65
2023/08/03 02:57:43;;;;;;;1.15;0.73;;;16.30;99.90;;;;;;5068740;28;20095;-65
2023/08/03 03:00:10;;;;;;;4.25;1.02;;;16.30;99.90;;;;;;5067829;28;20498;-65
2023/08/03 03:02:36;;;;;;;1.20;0.73;;;16.20;99.90;;;;;;5068677;28;20047;-66
2023/08/03 03:05:02;;;;;;;2.95;0.50;;;16.20;99.90;;;;;;5051886;28;20048;-66
2023/08/03 03:07:31;;;;;;;1.38;0.60;;;16.10;99.90;;;;;;5068240;28;20083;-66
2023/08/03 03:09:57;;;;;;;1.13;0.60;;;16.10;99.90;;;;;;5069988;28;20156;-66
2023/08/03 03:12:23;;;;;;;3.33;0.90;;;16.00;99.90;;;;;;5051999;28;20095;-66
2023/08/03 03:14:49;;;;;;;3.03;0.50;;;15.90;99.90;;;;;;5047340;28;20485;-66
2023/08/03 03:17:15;;;;;;;0.85;0.40;;;15.90;99.90;;;;;;5032685;28;20068;-66
2023/08/03 03:19:41;;;;;;;1.63;0.40;;;15.90;99.90;;;;;;5052688;28;20043;-65
2023/08/03 03:22:07;;;;;;;1.10;0.40;;;15.80;99.90;;;;;;5052076;28;20433;-66
2023/08/03 03:24:33;;;;;;;1.08;0.63;;;15.80;99.90;;;;;;5053181;28;20124;-65
2023/08/03 03:26:59;;;;;;;8.45;0.60;;;15.70;99.90;;;;;;5052661;28;20076;-66
2023/08/03 03:29:25;;;;;;;1.05;0.80;;;15.70;99.90;;;;;;5051734;28;20052;-66
2023/08/03 03:31:50;;;;;;;0.68;0.30;;;15.70;99.90;;;;;;5051645;28;20044;-66
2023/08/03 03:34:16;;;;;;;1.17;0.60;;;15.60;99.90;;;;;;5052296;28;20041;-66
2023/08/03 03:36:42;;;;;;;1.45;0.57;;;15.60;99.90;;;;;;5051532;28;20044;-66
2023/08/03 03:39:08;;;;;;;0.40;0.30;;;15.60;99.90;;;;;;5051647;28;20040;-66
2023/08/03 03:41:33;;;;;;;1.10;0.60;;;15.60;99.90;;;;;;5052327;28;20087;-65
2023/08/03 03:43:59;;;;;;;0.70;0.50;;;15.60;99.90;;;;;;5053115;28;20037;-66
2023/08/03 03:46:25;;;;;;;1.38;0.50;;;15.70;99.90;;;;;;5051523;28;20393;-66
2023/08/03 03:48:51;;;;;;;3.13;0.47;;;15.70;99.90;;;;;;5053891;28;20040;-66
2023/08/03 03:51:19;;;;;;;2.05;0.57;;;15.70;99.90;;;;;;5071273;28;20080;-65
2023/08/03 03:53:44;;;;;;;1.38;0.70;;;15.70;99.90;;;;;;5071109;28;20127;-66
2023/08/03 03:56:10;;;;;;;1.40;0.40;;;15.80;99.90;;;;;;5070619;28;20128;-66
2023/08/03 03:58:36;;;;;;;4.00;0.60;;;15.80;99.90;;;;;;5072227;28;20040;-66
2023/08/03 04:01:02;;;;;;;3.17;0.60;;;15.80;99.90;;;;;;5071216;28;20044;-65
2023/08/03 04:03:27;;;;;;;1.10;0.82;;;15.80;99.90;;;;;;5070639;28;20048;-65
2023/08/03 04:05:53;;;;;;;3.33;0.55;;;15.80;99.90;;;;;;5071140;28;20051;-65
2023/08/03 04:08:19;;;;;;;2.22;1.08;;;15.90;99.90;;;;;;5058436;28;20037;-65
2023/08/03 04:10:45;;;;;;;3.83;0.38;;;15.90;99.90;;;;;;5050428;28;20064;-65
2023/08/03 04:13:11;;;;;;;3.65;0.40;;;15.90;99.90;;;;;;5051100;28;20044;-64
2023/08/03 04:15:36;;;;;;;1.60;0.82;;;15.90;99.90;;;;;;5050504;28;20063;-66
2023/08/03 04:18:02;;;;;;;2.55;0.50;;;15.90;99.90;;;;;;5052154;28;20079;-65
2023/08/03 04:20:28;;;;;;;3.13;0.50;;;15.90;99.90;;;;;;5051021;28;20055;-65
2023/08/03 04:22:54;;;;;;;0.45;0.30;;;16.00;99.90;;;;;;5050162;28;20052;-65
2023/08/03 04:25:20;;;;;;;3.05;0.40;;;16.00;99.90;;;;;;5050742;28;20052;-65
2023/08/03 04:27:49;;;;;;;3.38;1.05;;;16.00;99.90;;;;;;5050463;28;20040;-65
2023/08/03 04:30:14;;;;;;;0.80;0.35;;;16.00;99.90;;;;;;5050321;28;20045;-65
2023/08/03 04:32:41;;;;;;;1.67;0.68;;;16.00;99.90;;;;;;5050750;28;20504;-65
2023/08/03 04:35:07;;;;;;;1.67;0.50;;;16.00;99.90;;;;;;5051755;28;20134;-65
2023/08/03 04:37:33;;;;;;;1.08;0.40;;;16.00;99.90;;;;;;5049942;28;20584;-65
2023/08/03 04:39:58;;;;;;;0.38;0.30;;;16.00;99.90;;;;;;5030516;28;20131;-65
2023/08/03 04:42:24;;;;;;;4.03;0.50;;;16.00;99.90;;;;;;5030756;28;20033;-65
2023/08/03 04:44:50;;;;;;;2.33;0.70;;;16.10;99.90;;;;;;5033116;28;20502;-65
2023/08/03 04:47:16;;;;;;;4.50;0.70;;;16.10;99.90;;;;;;5070185;28;20109;-65
2023/08/03 04:49:42;;;;;;;1.02;0.50;;;16.10;99.90;;;;;;5070196;28;20060;-65
2023/08/03 04:52:08;;;;;;;1.58;0.38;;;16.10;99.90;;;;;;5069266;28;20079;-66
2023/08/03 04:54:34;;;;;;;0.77;0.38;;;16.10;99.90;;;;;;5071424;28;20059;-65
2023/08/03 04:56:59;;;;;;;0.30;0.30;;;16.10;99.90;;;;;;5070216;28;20127;-65
2023/08/03 04:59:25;;;;;;;0.65;0.32;;;16.20;99.90;;;;;;5069260;28;20492;-65
2023/08/03 05:01:51;;;;;;;2.10;0.70;;;16.20;99.90;;;;;;5071203;28;20115;-64
2023/08/03 05:04:17;;;;;;;0.60;0.28;;;16.20;99.90;;;;;;5058490;28;20055;-64
2023/08/03 05:06:42;;;;;;;0.65;0.30;;;16.20;99.90;;;;;;5049492;28;20051;-65
2023/08/03 05:09:08;;;;;;;1.20;0.25;;;16.20;99.90;;;;;;5051270;28;20037;-64
2023/08/03 05:11:34;;;;;;;6.25;0.90;;;16.20;99.90;;;;;;5049923;28;20063;-65
2023/08/03 05:14:00;;;;;;;1.48;0.30;;;16.20;99.90;;;;;;5050473;28;20123;-64
2023/08/03 05:16:26;;;;;;;0.90;0.47;;;16.20;99.90;;;;;;5049586;28;20049;-64
2023/08/03 05:18:52;;;;;;;1.15;0.32;;;16.30;99.90;;;;;;5049429;28;20397;-64
2023/08/03 05:21:18;;;;;;;2.33;0.43;;;16.30;99.90;;;;;;5048410;28;20044;-65
2023/08/03 05:23:45;;;;;;;0.88;0.60;;;16.30;99.90;;;;;;5048529;28;20040;-64
2023/08/03 05:26:12;;;;;;;0.98;0.47;;;16.40;99.90;;;;;;5049043;28;20106;-64
2023/08/03 05:28:37;;;;;;;0.75;0.40;;;16.40;99.90;;;;;;5049775;28;20072;-64
2023/08/03 05:31:05;;;;;;;0.93;0.60;;;16.50;99.90;;;;;;5048400;28;20466;-64
2023/08/03 05:33:33;;;;;;;0.88;0.45;;;16.50;99.90;;;;;;5047893;28;20041;-64
2023/08/03 05:35:59;;;;;;;1.52;0.80;;;16.60;99.90;;;;;;5049633;28;20064;-63
2023/08/03 05:38:25;;;;;;;2.47;0.30;;;16.60;99.90;;;;;;5048279;28;20485;-63
2023/08/03 05:40:50;;;;;;;2.13;0.40;;;16.60;99.90;;;;;;5047089;28;20041;-63
2023/08/03 05:43:16;;;;;;;1.25;0.70;;;16.60;99.90;;;;;;5067423;28;20119;-63
2023/08/03 05:45:49;;;;;;;1.85;0.45;;;16.70;99.90;;;;;;5056901;28;20052;-63
2023/08/03 05:48:20;;;;;;;0.73;0.35;;;16.80;99.90;;;;;;5050149;28;20041;-63
2023/08/03 05:50:51;;;;;;;3.17;0.63;;;16.80;99.90;;;;;;5050358;28;20041;-62
2023/08/03 05:53:17;;;;;;;1.38;0.68;;;17.00;99.90;;;;;;5050122;28;20052;-63
2023/08/03 05:55:44;;;;;;;3.47;0.47;;;17.00;99.90;;;;;;5049856;28;20051;-62
2023/08/03 05:58:12;;;;;;;2.13;0.57;;;17.10;99.90;;;;;;5049180;28;20041;-62
2023/08/03 06:00:43;;;;;;;1.05;0.52;;;17.20;99.90;;;;;;5053346;28;20056;-62
2023/08/03 06:03:13;;;;;;;0.85;0.40;;;17.20;99.90;;;;;;5050499;28;20045;-62
2023/08/03 06:05:42;;;;;;;1.02;0.22;;;17.30;99.90;;;;;;5050470;28;20041;-62
2023/08/03 06:08:21;;;;;;;1.00;0.60;;;17.40;99.90;;;;;;5048614;28;20067;-61
2023/08/03 06:10:56;;;;;;;4.07;1.05;;;17.50;99.90;;;;;;5050299;28;20040;-61
2023/08/03 06:13:34;;;;;;;0.93;0.43;;;17.50;99.90;;;;;;5048463;28;20485;-61
2023/08/03 06:16:11;;;;;;;0.80;0.40;;;17.60;99.90;;;;;;5047210;28;20053;-61
2023/08/03 06:18:46;;;;;;;0.90;0.45;;;17.70;99.90;;;;;;5047786;28;20574;-61
2023/08/03 06:21:14;;;;;;;5.25;0.63;;;17.80;99.90;;;;;;5049078;28;20397;-61
2023/08/03 06:23:43;;;;;;;2.35;0.75;;;17.90;99.90;;;;;;5047326;28;20567;-61
2023/08/03 06:26:12;;;;;;;0.93;0.60;;;18.00;99.90;;;;;;5047569;28;20045;-61
2023/08/03 06:28:38;;;;;;;0.88;0.63;;;18.10;99.90;;;;;;5046949;28;20049;-61
2023/08/03 06:31:16;;;;;;;1.25;0.55;;;18.30;99.90;;;;;;5048743;28;20056;-61
2023/08/03 06:33:43;;;;;;;1.08;0.52;;;18.50;99.90;;;;;;5047438;28;20068;-61
2023/08/03 06:36:19;;;;;;;1.33;0.70;;;18.60;99.90;;;;;;5048117;28;20116;-61
2023/08/03 06:38:45;;;;;;;2.38;0.40;;;18.70;99.90;;;;;;5061455;28;20062;-61
2023/08/03 06:41:11;;;;;;;0.82;0.35;;;18.80;99.90;;;;;;5068764;28;20086;-61
2023/08/03 06:43:38;;;;;;;1.05;0.50;;;18.90;99.90;;;;;;5066915;28;20048;-61
2023/08/03 06:46:07;;;;;;;1.83;0.40;;;19.00;99.90;;;;;;5067524;28;20055;-62
2023/08/03 06:48:33;;;;;;;0.63;0.43;;;19.00;99.90;;;;;;5068742;28;20441;-61
2023/08/03 06:51:02;;;;;;;1.45;0.40;;;19.00;99.90;;;;;;5066730;28;20037;-62
2023/08/03 06:53:29;;;;;;;0.40;0.22;;;19.00;99.90;;;;;;5071272;28;20048;-62
2023/08/03 06:55:55;;;;;;;2.20;0.75;;;18.90;99.90;;;;;;5068313;28;20427;-62
2023/08/03 06:58:21;;;;;;;2.15;0.45;;;18.80;99.90;;;;;;5051936;28;20029;-62
2023/08/03 07:00:47;;;;;;;1.80;0.73;;;18.70;99.90;;;;;;5069217;28;20043;-62
2023/08/03 07:03:13;;;;;;;0.60;0.40;;;18.80;99.90;;;;;;5072363;28;20033;-62
2023/08/03 07:05:40;;;;;;;1.75;0.77;;;19.00;99.90;;;;;;5071685;28;20039;-62
2023/08/03 07:08:06;;;;;;;2.00;0.38;;;19.00;99.90;;;;;;5053961;28;20117;-62
2023/08/03 07:10:33;;;;;;;0.30;0.30;;;19.00;99.90;;;;;;5051847;28;20099;-62
2023/08/03 07:12:58;;;;;;;0.90;0.50;;;19.20;99.90;;;;;;5052554;28;20045;-62
2023/08/03 07:15:24;;;;;;;0.65;0.40;;;19.50;99.90;;;;;;5052741;28;20599;-62
2023/08/03 07:17:50;;;;;;;1.13;0.50;;;19.60;99.90;;;;;;5033606;28;20432;-62
2023/08/03 07:20:17;;;;;;;0.43;0.35;;;19.70;99.90;;;;;;5051823;28;20072;-62
2023/08/03 07:22:45;;;;;;;0.75;0.30;;;19.70;99.90;;;;;;5052047;28;20037;-62
2023/08/03 07:25:11;;;;;;;0.65;0.35;;;19.70;99.90;;;;;;5051375;28;20404;-62
2023/08/03 07:27:40;;;;;;;2.83;0.63;;;19.70;99.90;;;;;;5045780;28;20033;-62
2023/08/03 07:30:09;;;;;;;3.38;0.40;;;19.80;99.90;;;;;;5051321;28;20045;-62
2023/08/03 07:32:35;;;;;;;1.48;0.30;;;20.00;99.90;;;;;;5036944;28;20467;-62
2023/08/03 07:35:02;;;;;;;0.65;0.45;;;20.10;99.90;;;;;;5052570;28;20045;-63
2023/08/03 07:37:28;;;;;;;0.32;0.25;;;20.30;99.90;;;;;;5052818;28;20453;-63
2023/08/03 07:39:54;;;;;;;1.27;0.25;;;20.50;99.90;;;;;;5050276;28;20049;-62
2023/08/03 07:42:20;;;;;;;0.88;0.28;;;20.70;99.90;;;;;;5031765;28;20120;-62
2023/08/03 07:44:45;;;;;;;0.30;0.20;;;20.80;99.90;;;;;;5032498;28;20064;-63
2023/08/03 07:47:11;;;;;;;0.30;0.20;;;20.70;99.90;;;;;;5051184;28;20041;-63
2023/08/03 07:49:37;;;;;;;0.63;0.30;;;20.70;99.90;;;;;;5051646;28;20037;-63
2023/08/03 07:52:03;;;;;;;2.53;0.30;;;20.80;99.90;;;;;;5049666;28;20044;-63
2023/08/03 07:54:30;;;;;;;1.55;0.20;;;21.10;99.90;;;;;;5049546;28;20057;-63
2023/08/03 07:56:56;;;;;;;0.20;0.10;;;21.50;99.90;;;;;;5048693;28;20489;-63
2023/08/03 07:59:22;;;;;;;0.10;0.10;;;21.70;99.90;;;;;;5056725;28;20055;-64
2023/08/03 08:01:48;;;;;;;0.50;0.20;;;21.70;99.90;;;;;;5070633;28;20107;-64
2023/08/03 08:04:14;;;;;;;1.17;0.30;;;21.50;99.90;;;;;;5070661;28;20558;-64
2023/08/03 08:06:40;;;;;;;0.40;0.30;;;21.20;99.90;;;;;;5052485;28;20048;-63
2023/08/03 08:09:06;;;;;;;0.65;0.20;;;21.00;99.90;;;;;;5069565;28;20040;-64
2023/08/03 08:11:32;;;;;;;1.40;0.20;;;20.80;99.90;;;;;;5070919;28;20067;-63
2023/08/03 08:13:59;;;;;;;0.35;0.30;;;20.60;99.90;;;;;;5069190;28;20086;-63
2023/08/03 08:16:25;;;;;;;0.63;0.20;;;20.40;99.90;;;;;;5070750;28;20477;-63
2023/08/03 08:18:51;;;;;;;1.27;0.20;;;20.50;99.90;;;;;;5058703;28;20041;-63
2023/08/03 08:21:17;;;;;;;1.50;0.38;;;20.70;99.90;;;;;;5028694;28;20044;-64
2023/08/03 08:23:43;;;;;;;4.65;0.75;;;21.10;99.90;;;;;;5039059;28;20490;-63
2023/08/03 08:26:17;;;;;;;0.40;0.20;;;21.40;99.90;;;;;;5032729;28;20095;-63
2023/08/03 08:28:44;;;;;;;1.73;0.30;;;21.60;99.90;;;;;;5050277;28;20040;-64
2023/08/03 08:31:11;;;;;;;1.17;0.50;;;21.70;99.90;;;;;;5060894;28;20044;-63
2023/08/03 08:33:37;;;;;;;0.40;0.30;;;21.90;99.90;;;;;;5050939;28;20044;-64
2023/08/03 08:36:03;;;;;;;1.63;0.20;;;21.90;99.90;;;;;;5049869;28;20072;-63
2023/08/03 08:38:30;;;;;;;0.40;0.10;;;21.60;99.90;;;;;;5049183;28;20051;-64
2023/08/03 08:41:00;;;;;;;0.60;0.20;;;21.50;99.90;;;;;;5050420;28;20509;-64
2023/08/03 08:43:25;;;;;;;1.23;0.22;;;21.60;99.90;;;;;;5048552;28;20044;-64
2023/08/03 08:45:52;;;;;;;0.47;0.28;;;21.50;99.90;;;;;;5036651;28;20103;-64
2023/08/03 08:48:18;;;;;;;0.40;0.28;;;21.60;99.90;;;;;;5033571;28;20507;-64
2023/08/03 08:50:45;;;;;;;3.88;0.30;;;21.90;99.90;;;;;;5040226;28;20099;-63
2023/08/03 08:53:14;;;;;;;0.20;0.10;;;22.10;99.90;;;;;;5030056;28;20056;-64
2023/08/03 08:55:40;;;;;;;1.15;0.75;;;22.30;99.90;;;;;;5028569;28;20405;-64
2023/08/03 08:58:05;;;;;;;2.83;0.77;;;22.60;99.90;;;;;;5012636;28;20041;-64
2023/08/03 09:00:44;;;;;;;0.70;0.30;;;22.60;99.90;;;;;;5045181;28;20029;-64
2023/08/03 09:03:10;;;;;;;0.20;0.10;;;22.40;99.90;;;;;;5069643;28;20143;-64
2023/08/03 09:05:37;;;;;;;0.20;0.20;;;22.50;99.90;;;;;;5068783;28;20134;-63
2023/08/03 09:08:05;;;;;;;1.23;0.30;;;22.60;99.90;;;;;;5069180;28;20040;-64
2023/08/03 09:10:45;;;;;;;1.58;0.50;;;22.30;99.90;;;;;;5068121;28;20044;-64
2023/08/03 09:13:26;;;;;;;3.63;0.50;;;22.20;99.90;;;;;;5070166;28;20051;-65
2023/08/03 09:15:53;;;;;;;0.70;0.10;;;22.40;99.90;;;;;;5057395;28;20525;-64
2023/08/03 09:18:20;;;;;;;4.40;0.50;;;22.70;99.90;;;;;;5049181;28;20037;-63
2023/08/03 09:20:46;;;;;;;3.63;0.50;;;23.00;99.90;;;;;;5049867;28;20070;-64
2023/08/03 09:23:30;;;;;;;0.55;0.30;;;22.90;99.90;;;;;;5050084;28;20374;-64
2023/08/03 09:25:55;;;;;;;1.27;0.40;;;22.80;99.90;;;;;;5047874;28;20072;-64
2023/08/03 09:28:34;;;;;;;2.25;0.80;;;22.80;99.90;;;;;;5048404;28;20069;-65
2023/08/03 09:31:00;;;;;;;0.57;0.40;;;23.00;99.90;;;;;;5049171;28;20072;-65
2023/08/03 09:33:25;;;;;;;0.80;0.30;;;23.30;99.90;;;;;;5048687;28;20187;-64
2023/08/03 09:36:02;;;;;;;1.60;0.47;;;23.20;99.90;;;;;;5049286;28;20575;-64
2023/08/03 09:38:28;;;;;;;1.38;0.28;;;23.10;99.90;;;;;;5048607;28;20128;-65
2023/08/03 09:40:54;;;;;;;0.60;0.30;;;23.20;99.90;;;;;;5048705;28;20537;-64
2023/08/03 09:43:26;;;;;;;1.65;0.40;;;23.40;99.90;;;;;;5047700;28;20037;-65
2023/08/03 09:45:53;;;;;;;0.77;0.17;;;23.70;99.90;;;;;;5047424;28;20047;-65
2023/08/03 09:48:22;;;;;;;4.25;0.43;;;23.90;99.90;;;;;;5047811;28;20045;-65
2023/08/03 09:50:51;;;;;;;2.05;0.60;;;23.90;99.90;;;;;;5047909;28;20033;-65
2023/08/03 09:53:20;;;;;;;0.40;0.30;;;23.90;99.90;;;;;;5030486;28;20057;-64
2023/08/03 09:55:53;;;;;;;0.82;0.30;;;24.00;99.90;;;;;;5047687;28;20044;-65
2023/08/03 09:58:23;;;;;;;0.32;0.20;;;23.90;99.90;;;;;;5049232;28;20033;-64
2023/08/03 10:00:51;;;;;;;0.28;0.20;;;23.60;99.90;;;;;;5049450;28;20072;-65
2023/08/03 10:03:21;;;;;;;1.60;0.30;;;23.70;99.90;;;;;;5050188;28;20386;-65
2023/08/03 10:06:01;;;;;;;0.88;0.20;;;23.70;99.90;;;;;;5048503;28;20686;-65
2023/08/03 10:08:32;;;;;;;4.38;0.22;;;23.80;99.90;;;;;;5050066;28;20116;-64
2023/08/03 10:11:00;;;;;;;0.55;0.28;;;24.10;99.90;;;;;;5049899;28;20108;-64
2023/08/03 10:13:29;;;;;;;3.42;0.57;;;24.00;99.90;;;;;;5047579;28;20079;-65
2023/08/03 10:15:55;;;;;;;0.70;0.28;;;24.10;99.90;;;;;;5046256;28;20493;-65
2023/08/03 10:18:21;;;;;;;0.32;0.08;;;24.40;99.90;;;;;;5047411;28;20517;-65
2023/08/03 10:20:48;;;;;;;5.03;0.20;;;24.60;99.90;;;;;;5030356;28;20033;-65
2023/08/03 10:23:18;;;;;;;3.50;0.30;;;24.40;99.90;;;;;;5047628;28;20521;-65
2023/08/03 10:25:53;;;;;;;1.20;0.30;;;24.30;99.90;;;;;;5047648;28;20545;-64
2023/08/03 10:28:35;;;;;;;0.80;0.30;;;24.10;99.90;;;;;;5051347;28;20071;-65
2023/08/03 10:31:07;;;;;;;0.30;0.10;;;23.80;99.90;;;;;;5052806;28;20071;-64
2023/08/03 10:33:51;;;;;;;2.00;0.35;;;23.70;99.90;;;;;;5052900;28;20041;-65
2023/08/03 10:39:09;;;;;;;1.95;0.20;;;23.50;99.90;;;;;;5051554;28;20053;-65
2023/08/03 10:41:46;;;;;;;0.82;0.22;;;23.40;99.90;;;;;;5050685;28;20077;-66
2023/08/03 10:44:12;;;;;;;2.35;0.30;;;23.40;99.90;;;;;;5051635;28;20094;-66
2023/08/03 10:46:39;;;;;;;0.43;0.22;;;23.70;99.90;;;;;;5051588;28;20439;-65
2023/08/03 10:49:23;;;;;;;0.20;0.10;;;24.00;99.90;;;;;;5052547;28;20091;-65
2023/08/03 10:51:49;;;;;;;0.60;0.20;;;24.20;99.90;;;;;;5052183;28;20538;-65
2023/08/03 10:54:17;;;;;;;4.13;0.60;;;24.20;99.90;;;;;;5052344;28;20076;-65
2023/08/03 10:57:06;;;;;;;2.08;0.55;;;24.00;99.90;;;;;;5051839;28;20489;-64
2023/08/03 10:59:44;;;;;;;0.73;0.28;;;23.70;99.90;;;;;;5060578;28;20042;-65
2023/08/03 11:02:20;;;;;;;3.53;0.30;;;23.70;99.90;;;;;;5072107;28;20048;-63
2023/08/03 11:04:53;;;;;;;1.40;0.40;;;23.80;99.90;;;;;;5072189;28;20361;-64
2023/08/03 11:07:33;;;;;;;1.67;0.47;;;23.70;99.90;;;;;;5070512;28;20037;-65
2023/08/03 11:10:04;;;;;;;0.50;0.25;;;23.50;99.90;;;;;;5052904;28;20373;-65
2023/08/03 11:12:31;;;;;;;0.70;0.32;;;23.30;99.90;;;;;;5051165;28;20048;-65
2023/08/03 11:14:59;;;;;;;0.35;0.13;;;23.10;99.90;;;;;;5051766;28;20041;-64
2023/08/03 11:17:29;;;;;;;3.05;0.70;;;23.00;99.90;;;;;;5051833;28;20044;-65
2023/08/03 11:19:56;;;;;;;4.55;0.65;;;23.00;99.90;;;;;;5050668;28;20041;-64
2023/08/03 11:22:23;;;;;;;2.25;0.60;;;22.80;99.90;;;;;;5052033;28;20564;-65
2023/08/03 11:24:51;;;;;;;1.23;0.40;;;22.60;99.90;;;;;;5049871;28;20497;-64
2023/08/03 11:27:21;;;;;;;0.43;0.22;;;22.20;99.90;;;;;;5051572;28;20045;-65
2023/08/03 11:29:47;;;;;;;2.03;0.50;;;21.90;99.90;;;;;;5050072;28;20037;-65
2023/08/03 11:32:21;;;;;;;0.90;0.40;;;21.60;99.90;;;;;;5050364;28;20516;-65
2023/08/03 11:34:47;;;;;;;1.17;0.22;;;21.40;99.90;;;;;;5050194;28;20045;-65
2023/08/03 11:37:13;;;;;;;0.68;0.25;;;21.30;99.90;;;;;;5049444;28;20099;-65
2023/08/03 11:39:39;;;;;;;3.55;0.30;;;21.20;99.90;;;;;;5050137;28;20098;-66
2023/08/03 11:42:06;;;;;;;3.60;0.40;;;21.10;99.90;;;;;;5052391;28;20111;-65
2023/08/03 11:44:38;;;;;;;0.30;0.30;;;21.00;99.90;;;;;;5051336;28;20380;-65
2023/08/03 11:47:08;;;;;;;4.50;0.30;;;20.90;99.90;;;;;;5051802;28;20540;-65
2023/08/03 11:49:35;;;;;;;1.45;0.30;;;21.00;99.90;;;;;;5051452;28;20037;-65
2023/08/03 11:52:01;;;;;;;1.02;0.40;;;21.10;99.90;;;;;;5033976;28;20136;-65
2023/08/03 11:54:29;;;;;;;0.10;0.08;;;21.20;99.90;;;;;;5051204;28;20057;-66
2023/08/03 11:58:07;;;;;;;0.32;0.20;;;21.30;99.90;;;;;;5052542;28;20040;-65
2023/08/03 11:59:44;;;;;;;3.45;0.40;;;21.30;99.90;;;;;;5061259;28;20044;-65
2023/08/03 12:02:10;;;;;;;1.02;0.40;;;21.30;99.90;;;;;;5054597;28;20521;-65
2023/08/03 12:04:36;;;;;;;2.50;0.40;;;21.20;99.90;;;;;;5060895;28;20095;-66
2023/08/03 12:07:02;;;;;;;2.00;0.47;;;21.40;99.90;;;;;;5052310;28;20493;-66
2023/08/03 12:09:35;;;;;;;1.55;0.50;;;21.50;99.90;;;;;;5052497;28;20047;-66
2023/08/03 12:12:02;;;;;;;1.08;0.50;;;21.60;99.90;;;;;;5051933;28;20041;-66
2023/08/03 12:14:28;;;;;;;6.60;0.68;;;21.70;99.90;;;;;;5052183;28;20045;-66
2023/08/03 12:16:54;;;;;;;2.53;0.55;;;21.90;99.90;;;;;;5051249;28;20052;-66
2023/08/03 12:19:20;;;;;;;1.83;0.60;;;21.70;99.90;;;;;;5050280;28;20037;-65
2023/08/03 12:21:46;;;;;;;1.20;0.80;;;21.30;99.90;;;;;;5034289;28;20480;-66
2023/08/03 12:24:13;;;;;;;3.00;0.90;;;20.80;99.90;;;;;;5034280;28;20048;-66
2023/08/03 12:26:40;;;;;;;1.23;0.40;;;20.30;99.90;;;;;;5051510;28;20039;-67
2023/08/03 12:29:06;;;;;;;1.20;0.35;;;20.10;99.90;;;;;;5050807;28;20306;-66
2023/08/03 12:31:32;;;;;;;0.70;0.50;;;20.00;99.90;;;;;;5051959;28;20045;-66
2023/08/03 12:33:58;;;;;;;1.15;0.65;;;20.00;99.90;;;;;;5049838;28;20049;-66
2023/08/03 12:36:26;;;;;;;0.55;0.20;;;20.20;99.90;;;;;;5050892;28;20037;-66
2023/08/03 12:38:52;;;;;;;3.78;0.70;;;20.30;99.90;;;;;;5050784;28;20036;-66
2023/08/03 12:41:19;;;;;;;1.65;0.50;;;20.40;99.90;;;;;;5051336;28;20039;-66
2023/08/03 12:43:46;;;;;;;1.65;0.70;;;20.40;99.90;;;;;;5051786;28;20080;-67
2023/08/03 12:46:11;;;;;;;0.90;0.60;;;20.40;99.90;;;;;;5051754;28;20041;-66
2023/08/03 12:48:37;;;;;;;2.90;0.65;;;20.20;99.90;;;;;;5049631;28;20064;-66
2023/08/03 12:51:03;;;;;;;3.13;0.60;;;20.00;99.90;;;;;;5050179;28;20045;-66
2023/08/03 12:53:30;;;;;;;2.03;0.70;;;19.80;99.90;;;;;;5050004;28;20090;-66